Time;durP1;ratioP1;P1;durP2;ratioP2;P2;SDS_P1;SDS_P2;PMS_P1;PMS_P2;Temp;Humidity;BMP_temperature;BMP_pressure;BME280_temperature;BME280_humidity;BME280_pressure;Samples;Min_cycle;Max_cycle;Signal;HPM_P1;HPM_P2
2022/11/21 00:00:31;;;;;;;1.17;0.70;;;17.20;75.00;;;;;;5034029;28;20187;-70
2022/11/21 00:03:01;;;;;;;1.08;0.70;;;17.20;74.50;;;;;;5015755;28;20206;-70
2022/11/21 00:05:29;;;;;;;0.75;0.60;;;17.20;74.50;;;;;;5032500;28;20237;-70
2022/11/21 00:07:55;;;;;;;1.52;0.70;;;17.20;74.50;;;;;;5033288;28;20226;-70
2022/11/21 00:10:24;;;;;;;1.00;0.63;;;17.20;74.60;;;;;;5032874;28;20198;-70
2022/11/21 00:12:55;;;;;;;1.98;0.88;;;17.20;74.50;;;;;;5033609;28;20232;-69
2022/11/21 00:15:23;;;;;;;1.20;0.70;;;17.20;74.40;;;;;;5032675;28;20215;-70
2022/11/21 00:17:49;;;;;;;0.70;0.70;;;17.20;74.50;;;;;;5015825;28;20537;-70
2022/11/21 00:20:17;;;;;;;1.33;0.82;;;17.20;74.50;;;;;;5048946;28;20183;-70
2022/11/21 00:22:43;;;;;;;0.90;0.70;;;17.20;74.50;;;;;;5032041;28;20203;-70
2022/11/21 00:25:09;;;;;;;0.80;0.70;;;17.20;74.40;;;;;;5015285;28;20183;-70
2022/11/21 00:27:34;;;;;;;1.27;0.75;;;17.20;74.40;;;;;;5015794;28;20588;-70
2022/11/21 00:30:00;;;;;;;0.82;0.70;;;17.20;74.40;;;;;;5033360;28;20187;-70
2022/11/21 00:32:26;;;;;;;1.70;0.60;;;17.20;74.30;;;;;;5032886;28;20214;-70
2022/11/21 00:34:52;;;;;;;1.30;0.82;;;17.20;74.50;;;;;;5015346;28;20215;-70
2022/11/21 00:37:17;;;;;;;0.82;0.60;;;17.20;75.20;;;;;;5015734;28;20184;-70
2022/11/21 00:39:43;;;;;;;0.85;0.60;;;17.20;74.60;;;;;;5032232;28;20241;-70
2022/11/21 00:42:09;;;;;;;2.10;0.70;;;17.20;74.50;;;;;;5031803;28;20222;-70
2022/11/21 00:44:35;;;;;;;1.17;0.70;;;17.20;74.50;;;;;;5031679;28;20669;-70
2022/11/21 00:47:00;;;;;;;0.80;0.80;;;17.20;74.50;;;;;;5032938;28;20187;-70
2022/11/21 00:49:26;;;;;;;1.13;0.80;;;17.20;74.50;;;;;;5015252;28;20203;-70
2022/11/21 00:51:52;;;;;;;0.70;0.70;;;17.20;74.50;;;;;;5031538;28;20207;-70
2022/11/21 00:54:18;;;;;;;1.15;0.85;;;17.20;74.50;;;;;;5032444;28;20211;-70
2022/11/21 00:56:44;;;;;;;1.73;0.65;;;17.20;74.50;;;;;;5015138;28;20183;-70
2022/11/21 00:59:10;;;;;;;0.80;0.60;;;17.20;74.50;;;;;;5032718;28;20225;-70
2022/11/21 01:01:35;;;;;;;1.40;0.60;;;17.20;74.50;;;;;;5032890;28;20669;-70
2022/11/21 01:04:01;;;;;;;0.85;0.80;;;17.20;74.50;;;;;;5014376;28;20183;-70
2022/11/21 01:06:27;;;;;;;0.70;0.70;;;17.20;74.40;;;;;;5014964;28;20187;-70
2022/11/21 01:08:53;;;;;;;0.90;0.70;;;17.20;74.50;;;;;;5031370;28;20179;-70
2022/11/21 01:11:20;;;;;;;0.57;0.57;;;17.20;74.40;;;;;;5032622;28;20641;-70
2022/11/21 01:13:47;;;;;;;2.08;1.10;;;17.20;74.30;;;;;;5030928;28;20219;-70
2022/11/21 01:16:19;;;;;;;0.63;0.63;;;17.20;74.30;;;;;;5014757;28;20458;-70
2022/11/21 01:18:46;;;;;;;0.80;0.60;;;17.20;74.40;;;;;;5031589;28;20571;-70
2022/11/21 01:21:16;;;;;;;1.48;0.98;;;17.20;74.40;;;;;;5031172;28;20333;-70
2022/11/21 01:23:43;;;;;;;0.60;0.60;;;17.20;74.40;;;;;;5014377;28;20187;-70
2022/11/21 01:26:16;;;;;;;0.65;0.65;;;17.20;74.30;;;;;;5020749;28;20184;-70
2022/11/21 01:28:42;;;;;;;1.25;0.80;;;17.20;74.40;;;;;;4995235;28;20191;-70
2022/11/21 01:31:29;;;;;;;1.23;0.60;;;17.20;74.50;;;;;;5012380;28;20259;-70
2022/11/21 01:33:58;;;;;;;0.93;0.75;;;17.20;74.40;;;;;;5010743;28;20306;-69
2022/11/21 01:36:28;;;;;;;0.88;0.80;;;17.20;74.40;;;;;;5011195;28;20206;-69
2022/11/21 01:38:57;;;;;;;1.08;0.45;;;17.20;74.30;;;;;;5011474;28;20664;-70
2022/11/21 01:41:37;;;;;;;0.55;0.55;;;17.20;74.40;;;;;;4995132;28;20208;-70
2022/11/21 01:44:13;;;;;;;1.33;0.60;;;17.20;74.30;;;;;;5010746;28;20210;-70
2022/11/21 01:46:39;;;;;;;0.85;0.65;;;17.20;74.30;;;;;;5011373;28;20183;-70
2022/11/21 01:49:23;;;;;;;1.02;0.50;;;17.20;74.30;;;;;;5011993;28;20184;-70
2022/11/21 01:52:03;;;;;;;0.60;0.57;;;17.20;74.20;;;;;;5010905;28;20212;-70
2022/11/21 01:54:52;;;;;;;0.90;0.70;;;17.20;74.40;;;;;;5012116;28;20246;-70
2022/11/21 01:57:25;;;;;;;0.90;0.50;;;17.20;74.30;;;;;;5029828;28;20183;-70
2022/11/21 02:00:20;;;;;;;0.95;0.55;;;17.20;74.40;;;;;;5030423;28;20215;-70
2022/11/21 02:02:52;;;;;;;0.88;0.57;;;17.20;74.40;;;;;;5030123;28;20222;-70
2022/11/21 02:05:25;;;;;;;0.77;0.60;;;17.20;74.30;;;;;;5014125;28;20183;-70
2022/11/21 02:07:55;;;;;;;0.73;0.60;;;17.20;74.30;;;;;;5031104;28;20187;-70
2022/11/21 02:10:22;;;;;;;0.45;0.45;;;17.20;74.20;;;;;;5032004;28;20191;-70
2022/11/21 02:12:57;;;;;;;0.70;0.57;;;17.20;74.20;;;;;;5013742;28;20226;-70
2022/11/21 02:15:27;;;;;;;0.88;0.60;;;17.20;74.10;;;;;;5029867;28;20207;-70
2022/11/21 02:17:53;;;;;;;0.70;0.60;;;17.20;74.30;;;;;;5013821;28;20205;-70
2022/11/21 02:20:23;;;;;;;0.65;0.50;;;17.20;74.30;;;;;;5031615;28;20172;-70
2022/11/21 02:23:09;;;;;;;0.80;0.63;;;17.20;74.30;;;;;;5029607;28;20207;-70
2022/11/21 02:25:42;;;;;;;1.77;0.70;;;17.20;74.40;;;;;;5030744;28;20196;-70
2022/11/21 02:28:14;;;;;;;1.05;0.60;;;17.20;74.30;;;;;;5031225;28;20187;-70
2022/11/21 02:30:42;;;;;;;0.35;0.35;;;17.20;74.20;;;;;;5029971;28;20214;-69
2022/11/21 02:33:09;;;;;;;1.40;0.55;;;17.20;74.30;;;;;;5013018;28;20218;-69
2022/11/21 02:35:35;;;;;;;0.70;0.60;;;17.20;74.20;;;;;;5013680;28;20191;-69
2022/11/21 02:38:21;;;;;;;0.98;0.50;;;17.20;74.20;;;;;;5030005;28;20223;-69
2022/11/21 02:40:58;;;;;;;0.70;0.50;;;17.20;74.20;;;;;;5030063;28;20270;-69
2022/11/21 02:43:32;;;;;;;0.70;0.60;;;17.20;74.20;;;;;;5013132;28;20202;-70
2022/11/21 02:45:58;;;;;;;0.80;0.70;;;17.20;74.30;;;;;;5029892;28;20179;-70
2022/11/21 02:48:23;;;;;;;1.17;0.68;;;17.20;74.30;;;;;;5030929;28;20190;-70
2022/11/21 02:50:49;;;;;;;0.98;0.70;;;17.20;74.30;;;;;;5013264;28;20179;-70
2022/11/21 02:53:17;;;;;;;1.10;0.60;;;17.20;74.20;;;;;;5029357;28;20261;-70
2022/11/21 02:55:44;;;;;;;0.60;0.60;;;17.20;74.10;;;;;;5029809;28;20218;-70
2022/11/21 02:58:11;;;;;;;0.60;0.60;;;17.20;74.20;;;;;;5013330;28;20183;-70
2022/11/21 03:00:39;;;;;;;0.47;0.47;;;17.20;74.10;;;;;;5031218;28;20206;-70
2022/11/21 03:03:05;;;;;;;0.70;0.50;;;17.20;74.20;;;;;;5029114;28;20211;-70
2022/11/21 03:05:31;;;;;;;1.27;0.60;;;17.20;74.30;;;;;;5013120;28;20202;-70
2022/11/21 03:07:57;;;;;;;0.75;0.60;;;17.20;74.20;;;;;;5029787;28;20195;-70
2022/11/21 03:10:23;;;;;;;1.42;0.77;;;17.20;74.10;;;;;;5029707;28;20203;-70
2022/11/21 03:12:48;;;;;;;0.95;0.45;;;17.20;74.10;;;;;;5030381;28;20210;-70
2022/11/21 03:15:15;;;;;;;0.57;0.57;;;17.10;74.00;;;;;;5012914;28;20652;-70
2022/11/21 03:17:42;;;;;;;1.50;0.60;;;17.20;74.10;;;;;;5029493;28;20241;-70
2022/11/21 03:20:09;;;;;;;0.60;0.50;;;17.10;74.00;;;;;;5029374;28;20198;-70
2022/11/21 03:22:35;;;;;;;0.50;0.40;;;17.20;74.10;;;;;;5030580;28;20205;-70
2022/11/21 03:25:01;;;;;;;0.65;0.52;;;17.20;74.10;;;;;;5029324;28;20191;-70
2022/11/21 03:27:26;;;;;;;0.77;0.63;;;17.20;74.10;;;;;;5031434;28;20573;-70
2022/11/21 03:29:52;;;;;;;0.50;0.40;;;17.20;73.90;;;;;;5034686;28;20184;-70
2022/11/21 03:32:18;;;;;;;0.70;0.50;;;17.20;74.00;;;;;;5034158;28;20207;-70
2022/11/21 03:34:44;;;;;;;0.57;0.55;;;17.10;74.00;;;;;;5013898;28;20204;-70
2022/11/21 03:37:09;;;;;;;0.40;0.40;;;17.10;74.00;;;;;;5028141;28;20192;-70
2022/11/21 03:39:35;;;;;;;1.10;0.60;;;17.20;74.10;;;;;;5032775;28;20187;-70
2022/11/21 03:42:01;;;;;;;1.15;0.45;;;17.20;74.00;;;;;;5034152;28;20206;-70
2022/11/21 03:44:28;;;;;;;0.38;0.32;;;17.20;74.10;;;;;;5032613;28;20194;-70
2022/11/21 03:46:54;;;;;;;0.43;0.40;;;17.10;73.90;;;;;;5032885;28;20278;-70
2022/11/21 03:49:19;;;;;;;0.55;0.40;;;17.20;74.10;;;;;;5028131;28;20199;-70
2022/11/21 03:51:45;;;;;;;0.70;0.57;;;17.10;74.00;;;;;;5032737;28;20211;-70
2022/11/21 03:54:11;;;;;;;0.63;0.50;;;17.10;74.80;;;;;;5015865;28;20243;-70
2022/11/21 03:56:38;;;;;;;0.52;0.50;;;17.20;74.20;;;;;;5016221;28;20187;-70
2022/11/21 03:59:05;;;;;;;0.68;0.60;;;17.20;74.10;;;;;;5032236;28;20732;-70
2022/11/21 04:01:31;;;;;;;1.98;0.43;;;17.20;74.00;;;;;;5033789;28;20199;-70
2022/11/21 04:03:57;;;;;;;1.27;0.45;;;17.20;74.10;;;;;;5032268;28;20198;-70
2022/11/21 04:06:24;;;;;;;0.88;0.50;;;17.20;74.00;;;;;;5032580;28;20187;-70
2022/11/21 04:08:51;;;;;;;0.75;0.50;;;17.10;73.90;;;;;;5032655;28;20275;-70
2022/11/21 04:11:20;;;;;;;0.30;0.30;;;17.10;73.90;;;;;;5033665;28;20187;-70
2022/11/21 04:13:45;;;;;;;0.82;0.52;;;17.10;73.90;;;;;;5015474;28;20226;-70
2022/11/21 04:16:11;;;;;;;1.08;0.52;;;17.10;73.80;;;;;;5032719;28;20187;-70
2022/11/21 04:18:37;;;;;;;0.65;0.50;;;17.20;74.00;;;;;;5032400;28;20187;-70
2022/11/21 04:21:06;;;;;;;0.52;0.52;;;17.20;73.90;;;;;;5031574;28;20198;-70
2022/11/21 04:23:32;;;;;;;0.80;0.50;;;17.20;74.00;;;;;;5031961;28;20183;-70
2022/11/21 04:25:58;;;;;;;0.30;0.30;;;17.20;73.90;;;;;;5032247;28;20238;-70
2022/11/21 04:28:24;;;;;;;0.90;0.43;;;17.10;73.90;;;;;;5031986;28;20195;-70
2022/11/21 04:30:50;;;;;;;0.80;0.63;;;17.20;74.00;;;;;;5033599;28;20197;-70
2022/11/21 04:33:18;;;;;;;0.52;0.40;;;17.20;74.10;;;;;;5031655;28;20219;-70
2022/11/21 04:35:45;;;;;;;1.40;0.40;;;17.20;74.10;;;;;;5034034;28;20188;-70
2022/11/21 04:38:13;;;;;;;0.40;0.40;;;17.20;74.00;;;;;;5031734;28;20242;-70
2022/11/21 04:40:39;;;;;;;0.80;0.52;;;17.20;74.00;;;;;;5032817;28;20241;-70
2022/11/21 04:43:05;;;;;;;0.80;0.50;;;17.20;74.00;;;;;;5033765;28;20195;-70
2022/11/21 04:45:31;;;;;;;0.57;0.47;;;17.20;74.10;;;;;;5032240;28;20195;-70
2022/11/21 04:47:57;;;;;;;0.55;0.30;;;17.10;73.90;;;;;;5032212;28;20198;-70
2022/11/21 04:50:23;;;;;;;0.50;0.50;;;17.20;74.10;;;;;;5032073;28;20194;-70
2022/11/21 04:52:55;;;;;;;0.40;0.40;;;17.20;74.00;;;;;;5015243;28;20353;-71
2022/11/21 04:55:25;;;;;;;0.50;0.50;;;17.20;74.10;;;;;;5033387;28;20310;-70
2022/11/21 04:57:51;;;;;;;0.70;0.30;;;17.10;74.00;;;;;;5032074;28;20183;-70
2022/11/21 05:00:18;;;;;;;0.50;0.50;;;17.20;74.00;;;;;;5032140;28;20313;-70
2022/11/21 05:02:44;;;;;;;0.50;0.50;;;17.20;74.10;;;;;;5032725;28;20203;-70
2022/11/21 05:05:10;;;;;;;0.95;0.50;;;17.20;74.00;;;;;;5014746;28;20187;-70
2022/11/21 05:07:37;;;;;;;0.40;0.40;;;17.20;74.10;;;;;;5031639;28;20191;-70
2022/11/21 05:10:04;;;;;;;0.40;0.38;;;17.10;73.90;;;;;;5031228;28;20222;-70
2022/11/21 05:15:14;;;;;;;0.32;0.32;;;17.20;74.70;;;;;;5030872;28;20292;-70
2022/11/21 05:17:40;;;;;;;0.30;0.30;;;17.20;74.10;;;;;;5031443;28;20186;-70
2022/11/21 05:20:07;;;;;;;0.30;0.30;;;17.10;74.40;;;;;;5014811;28;20196;-70
2022/11/21 05:22:32;;;;;;;0.40;0.40;;;17.20;74.10;;;;;;5031149;28;20198;-70
2022/11/21 05:24:58;;;;;;;0.40;0.40;;;17.20;74.10;;;;;;5014468;28;20179;-70
2022/11/21 05:27:24;;;;;;;0.52;0.50;;;17.20;74.10;;;;;;5031226;28;20191;-70
2022/11/21 05:29:49;;;;;;;0.40;0.40;;;17.20;74.10;;;;;;5031054;28;20199;-70
2022/11/21 05:32:15;;;;;;;0.68;0.50;;;17.20;74.00;;;;;;5031077;28;20218;-70
2022/11/21 05:34:41;;;;;;;0.50;0.25;;;17.20;74.10;;;;;;5031697;28;20211;-70
2022/11/21 05:37:07;;;;;;;0.30;0.30;;;17.20;74.10;;;;;;5032224;28;20183;-70
2022/11/21 05:39:32;;;;;;;0.30;0.30;;;17.20;74.10;;;;;;5032098;28;20183;-70
2022/11/21 05:41:58;;;;;;;0.57;0.57;;;17.20;74.10;;;;;;5030443;28;20231;-70
2022/11/21 05:44:24;;;;;;;0.75;0.50;;;17.10;74.00;;;;;;5030338;28;20183;-71
2022/11/21 05:46:49;;;;;;;0.40;0.40;;;17.20;74.00;;;;;;5030764;28;20201;-70
2022/11/21 05:49:15;;;;;;;0.30;0.30;;;17.20;74.10;;;;;;5030271;28;20184;-70
2022/11/21 05:51:41;;;;;;;0.88;0.38;;;17.20;74.10;;;;;;5029526;28;20265;-69
2022/11/21 05:54:07;;;;;;;0.35;0.30;;;17.20;74.00;;;;;;5030165;28;20219;-69
2022/11/21 05:56:32;;;;;;;0.75;0.30;;;17.20;74.10;;;;;;5030615;28;20176;-69
2022/11/21 05:58:58;;;;;;;0.35;0.30;;;17.20;74.10;;;;;;5030429;28;20710;-69
2022/11/21 06:04:10;;;;;;;0.30;0.30;;;17.20;74.10;;;;;;5030280;28;20237;-70
2022/11/21 06:06:36;;;;;;;1.30;0.40;;;17.20;74.20;;;;;;5014101;28;20187;-70
2022/11/21 06:09:03;;;;;;;0.30;0.30;;;17.20;74.20;;;;;;5031644;28;20237;-69
2022/11/21 06:11:29;;;;;;;0.40;0.40;;;17.20;74.10;;;;;;5030304;28;20203;-70
2022/11/21 06:13:55;;;;;;;0.45;0.40;;;17.10;74.00;;;;;;5029641;28;20700;-69
2022/11/21 06:16:21;;;;;;;0.40;0.32;;;17.20;74.10;;;;;;5030196;28;20283;-70
2022/11/21 06:18:51;;;;;;;0.55;0.55;;;17.10;74.00;;;;;;5030284;28;20286;-70
2022/11/21 06:21:27;;;;;;;0.43;0.43;;;17.20;74.00;;;;;;5030583;28;20215;-69
2022/11/21 06:23:55;;;;;;;0.30;0.30;;;17.20;74.00;;;;;;5012346;28;20199;-69
2022/11/21 06:26:24;;;;;;;0.60;0.50;;;17.20;74.00;;;;;;5029456;28;20249;-69
2022/11/21 06:28:51;;;;;;;0.80;0.47;;;17.20;74.00;;;;;;5029562;28;20199;-69
2022/11/21 06:31:23;;;;;;;0.47;0.30;;;17.20;74.10;;;;;;5029752;28;20194;-69
2022/11/21 06:33:55;;;;;;;0.45;0.45;;;17.10;73.90;;;;;;5030708;28;20219;-69
2022/11/21 06:36:21;;;;;;;0.50;0.50;;;17.10;73.90;;;;;;5028520;28;20183;-69
2022/11/21 06:38:47;;;;;;;1.23;0.60;;;17.20;73.90;;;;;;5028694;28;20217;-69
2022/11/21 06:41:20;;;;;;;0.22;0.22;;;17.10;73.90;;;;;;5029795;28;20187;-69
2022/11/21 06:43:46;;;;;;;1.60;0.40;;;17.20;74.00;;;;;;5029182;28;20715;-69
2022/11/21 06:46:14;;;;;;;0.43;0.43;;;17.20;74.00;;;;;;5029750;28;20282;-69
2022/11/21 06:48:42;;;;;;;0.60;0.50;;;17.20;74.00;;;;;;5013288;28;20285;-69
2022/11/21 06:51:20;;;;;;;0.40;0.40;;;17.20;74.00;;;;;;5029557;28;20225;-69
2022/11/21 06:53:47;;;;;;;0.47;0.40;;;17.10;74.00;;;;;;5029488;28;20613;-69
2022/11/21 06:56:14;;;;;;;1.33;0.70;;;17.20;74.10;;;;;;5029605;28;20183;-70
2022/11/21 06:58:40;;;;;;;0.60;0.50;;;17.20;74.00;;;;;;5029738;28;20187;-70
2022/11/21 07:01:08;;;;;;;0.75;0.50;;;17.10;73.90;;;;;;5029770;28;20313;-69
2022/11/21 07:03:35;;;;;;;1.15;0.30;;;17.20;74.00;;;;;;5033303;28;20302;-70
2022/11/21 07:06:01;;;;;;;0.77;0.45;;;17.20;74.00;;;;;;5033758;28;20275;-69
2022/11/21 07:08:29;;;;;;;0.90;0.55;;;17.10;73.90;;;;;;5017036;28;20187;-69
2022/11/21 07:11:00;;;;;;;1.13;0.50;;;17.20;74.80;;;;;;5017464;28;20175;-69
2022/11/21 07:13:27;;;;;;;1.10;0.55;;;17.20;73.90;;;;;;5033125;28;20180;-69
2022/11/21 07:15:59;;;;;;;0.63;0.50;;;17.20;73.80;;;;;;5033428;28;20179;-70
2022/11/21 07:18:25;;;;;;;0.93;0.63;;;17.20;73.90;;;;;;5033766;28;20183;-70
2022/11/21 07:20:51;;;;;;;0.50;0.50;;;17.20;73.90;;;;;;5033527;28;20680;-69
2022/11/21 07:23:17;;;;;;;0.98;0.43;;;17.20;73.80;;;;;;5033179;28;20249;-69
2022/11/21 07:25:43;;;;;;;0.98;0.52;;;17.20;73.80;;;;;;5033560;28;20191;-69
2022/11/21 07:28:09;;;;;;;2.42;0.52;;;17.20;73.80;;;;;;5033466;28;20191;-69
2022/11/21 07:30:36;;;;;;;0.73;0.68;;;17.20;73.80;;;;;;5033146;28;20215;-69
2022/11/21 07:33:05;;;;;;;1.13;0.63;;;17.20;73.80;;;;;;5033190;28;20218;-69
2022/11/21 07:35:32;;;;;;;2.25;0.50;;;17.20;73.80;;;;;;5032800;28;20219;-68
2022/11/21 07:37:59;;;;;;;1.02;0.60;;;17.20;73.80;;;;;;5032094;28;20232;-69
2022/11/21 07:40:25;;;;;;;0.50;0.40;;;17.20;73.80;;;;;;5032977;28;20184;-69
2022/11/21 07:42:51;;;;;;;0.68;0.55;;;17.20;73.90;;;;;;5016331;28;20265;-69
2022/11/21 07:45:17;;;;;;;0.68;0.50;;;17.20;73.90;;;;;;5033870;28;20265;-69
2022/11/21 07:47:43;;;;;;;0.85;0.40;;;17.20;73.80;;;;;;5015242;28;20201;-69
2022/11/21 07:50:11;;;;;;;0.93;0.57;;;17.20;73.80;;;;;;5013050;28;20188;-70
2022/11/21 07:52:38;;;;;;;1.15;0.63;;;17.20;73.80;;;;;;5012855;28;20211;-70
2022/11/21 07:55:04;;;;;;;1.30;0.52;;;17.20;73.80;;;;;;5012342;28;20211;-69
2022/11/21 07:57:31;;;;;;;0.50;0.50;;;17.20;73.80;;;;;;4996549;28;20188;-70
2022/11/21 07:59:57;;;;;;;0.60;0.60;;;17.20;73.80;;;;;;5014239;28;20188;-69
2022/11/21 08:02:26;;;;;;;0.50;0.50;;;17.20;73.80;;;;;;5012813;28;20200;-69
2022/11/21 08:04:53;;;;;;;0.95;0.65;;;17.30;73.90;;;;;;5012410;28;20213;-69
2022/11/21 08:07:22;;;;;;;1.10;0.50;;;17.30;73.80;;;;;;5014069;28;20180;-69
2022/11/21 08:09:48;;;;;;;2.15;0.60;;;17.30;73.90;;;;;;4996266;28;20208;-69
2022/11/21 08:12:14;;;;;;;1.65;0.65;;;17.20;73.80;;;;;;5012720;28;20208;-69
2022/11/21 08:14:40;;;;;;;0.55;0.55;;;17.30;73.90;;;;;;5011318;28;20220;-69
2022/11/21 08:17:07;;;;;;;1.00;0.50;;;17.30;73.80;;;;;;5023466;28;20271;-69
2022/11/21 08:19:33;;;;;;;0.85;0.60;;;17.30;73.90;;;;;;5033603;28;20175;-70
2022/11/21 08:22:00;;;;;;;1.40;0.70;;;17.30;74.00;;;;;;5032203;28;20226;-69
2022/11/21 08:24:26;;;;;;;1.92;0.90;;;17.30;73.90;;;;;;5015272;28;20195;-69
2022/11/21 08:26:52;;;;;;;0.80;0.80;;;17.20;73.80;;;;;;5015750;28;20214;-69
2022/11/21 08:29:18;;;;;;;1.08;0.63;;;17.30;73.90;;;;;;5032267;28;20712;-69
2022/11/21 08:31:44;;;;;;;0.85;0.60;;;17.30;73.90;;;;;;5033145;28;20218;-70
2022/11/21 08:34:11;;;;;;;1.02;0.63;;;17.30;73.90;;;;;;5031536;28;20306;-69
2022/11/21 08:36:38;;;;;;;0.85;0.70;;;17.20;73.80;;;;;;5033130;28;20179;-69
2022/11/21 08:39:04;;;;;;;2.05;0.85;;;17.30;73.90;;;;;;5032052;28;20194;-69
2022/11/21 08:44:14;;;;;;;2.28;0.60;;;17.20;73.90;;;;;;5031409;28;20190;-69
2022/11/21 08:46:40;;;;;;;0.95;0.73;;;17.30;73.90;;;;;;5031889;28;20187;-69
2022/11/21 08:49:07;;;;;;;1.35;0.80;;;17.30;73.90;;;;;;5031679;28;20195;-69
2022/11/21 08:51:34;;;;;;;1.25;0.70;;;17.30;73.90;;;;;;5015066;28;20250;-69
2022/11/21 08:54:00;;;;;;;1.05;0.50;;;17.30;74.00;;;;;;5031307;28;20289;-69
2022/11/21 08:56:27;;;;;;;0.93;0.70;;;17.30;73.90;;;;;;5031806;28;20191;-69
2022/11/21 08:58:53;;;;;;;0.80;0.80;;;17.30;73.80;;;;;;5015171;28;20251;-69
2022/11/21 09:01:19;;;;;;;0.90;0.60;;;17.30;73.80;;;;;;5031468;28;20218;-69
2022/11/21 09:03:45;;;;;;;2.45;0.90;;;17.30;73.80;;;;;;5032159;28;20290;-70
2022/11/21 09:06:12;;;;;;;1.08;0.80;;;17.30;73.70;;;;;;5015326;28;20277;-69
2022/11/21 09:08:37;;;;;;;1.15;0.80;;;17.30;73.80;;;;;;5031810;28;20197;-69
2022/11/21 09:11:06;;;;;;;2.72;0.85;;;17.30;73.60;;;;;;5031761;28;20187;-70
2022/11/21 09:13:33;;;;;;;0.80;0.57;;;17.30;73.70;;;;;;5031385;28;20661;-69
2022/11/21 09:18:44;;;;;;;1.25;0.50;;;17.30;73.80;;;;;;5031629;28;20191;-69
2022/11/21 09:21:18;;;;;;;1.40;0.50;;;17.30;74.50;;;;;;5031349;28;20191;-69
2022/11/21 09:23:44;;;;;;;1.95;0.68;;;17.30;73.70;;;;;;5031172;28;20184;-69
2022/11/21 09:26:11;;;;;;;1.10;0.68;;;17.30;73.70;;;;;;5032617;28;20186;-69
2022/11/21 09:28:37;;;;;;;1.10;0.80;;;17.30;73.70;;;;;;5031584;28;20187;-69
2022/11/21 09:31:04;;;;;;;0.95;0.65;;;17.30;73.70;;;;;;5032401;28;20187;-69
2022/11/21 09:33:31;;;;;;;0.60;0.60;;;17.30;73.70;;;;;;5031895;28;20195;-70
2022/11/21 09:36:00;;;;;;;0.75;0.60;;;17.30;73.60;;;;;;5027652;28;20198;-70
2022/11/21 09:38:28;;;;;;;0.60;0.60;;;17.30;73.60;;;;;;5030531;28;20187;-69
2022/11/21 09:44:16;;;;;;;1.95;0.60;;;17.30;73.60;;;;;;5031169;28;20193;-69
2022/11/21 09:46:53;;;;;;;0.52;0.45;;;17.30;73.80;;;;;;5031037;28;20191;-69
2022/11/21 09:49:24;;;;;;;1.25;0.77;;;17.30;73.70;;;;;;5030748;28;20297;-69
2022/11/21 09:51:51;;;;;;;0.75;0.70;;;17.30;73.70;;;;;;5030783;28;20715;-69
2022/11/21 09:54:30;;;;;;;1.52;0.70;;;17.30;73.80;;;;;;5031479;28;20207;-69
2022/11/21 09:56:56;;;;;;;0.80;0.80;;;17.30;73.80;;;;;;5030874;28;20194;-69
2022/11/21 09:59:32;;;;;;;0.95;0.68;;;17.30;73.80;;;;;;5047279;28;20175;-69
2022/11/21 10:01:59;;;;;;;1.40;0.88;;;17.30;73.70;;;;;;5031849;28;20249;-70
2022/11/21 10:04:26;;;;;;;1.05;0.68;;;17.30;73.70;;;;;;5030257;28;20274;-69
2022/11/21 10:07:09;;;;;;;1.42;0.70;;;17.30;73.60;;;;;;5031368;28;20187;-69
2022/11/21 10:10:02;;;;;;;0.85;0.63;;;17.30;73.70;;;;;;5030260;28;20191;-69
2022/11/21 10:12:52;;;;;;;1.05;0.70;;;17.30;73.60;;;;;;5031479;28;20238;-69
2022/11/21 10:15:39;;;;;;;0.50;0.50;;;17.30;73.60;;;;;;5029803;28;20223;-69
2022/11/21 10:18:46;;;;;;;0.52;0.52;;;17.30;73.70;;;;;;5030318;28;20187;-70
2022/11/21 10:21:23;;;;;;;1.17;0.90;;;17.30;73.60;;;;;;5029670;28;20194;-69
2022/11/21 10:24:33;;;;;;;0.65;0.63;;;17.30;73.50;;;;;;5013315;28;20210;-70
2022/11/21 10:27:10;;;;;;;1.75;0.90;;;17.30;73.60;;;;;;5013693;28;20183;-70
2022/11/21 10:29:54;;;;;;;0.80;0.60;;;17.30;73.60;;;;;;5030081;28;20651;-69
2022/11/21 10:32:28;;;;;;;1.13;0.60;;;17.30;73.50;;;;;;5029981;28;20211;-69
2022/11/21 10:35:04;;;;;;;0.68;0.50;;;17.30;73.80;;;;;;5013184;28;20218;-69
2022/11/21 10:37:39;;;;;;;0.63;0.60;;;17.30;73.60;;;;;;5029147;28;20194;-69
2022/11/21 10:40:33;;;;;;;1.02;0.68;;;17.30;73.60;;;;;;5031366;28;20182;-69
2022/11/21 10:46:14;;;;;;;1.13;0.80;;;17.30;73.40;;;;;;5029972;28;20282;-69
2022/11/21 10:48:40;;;;;;;1.40;0.70;;;17.30;73.40;;;;;;5013324;28;20282;-69
2022/11/21 10:51:12;;;;;;;1.48;0.77;;;17.30;73.40;;;;;;5029341;28;20229;-69
2022/11/21 10:56:26;;;;;;;1.13;0.80;;;17.30;73.30;;;;;;5030974;28;20190;-69
2022/11/21 10:58:58;;;;;;;0.88;0.63;;;17.30;73.30;;;;;;5029815;28;20190;-69
2022/11/21 11:01:29;;;;;;;1.15;0.70;;;17.30;73.40;;;;;;5013120;28;20241;-69
2022/11/21 11:04:10;;;;;;;0.77;0.70;;;17.40;73.40;;;;;;5013052;28;20184;-69
2022/11/21 11:06:44;;;;;;;0.88;0.60;;;17.30;73.30;;;;;;5029583;28;20195;-69
2022/11/21 11:09:27;;;;;;;1.77;0.85;;;17.30;73.30;;;;;;5029581;28;20234;-69
2022/11/21 11:12:24;;;;;;;1.38;0.60;;;17.30;73.30;;;;;;5029545;28;20226;-69
2022/11/21 11:14:55;;;;;;;1.08;0.60;;;17.30;73.30;;;;;;5012557;28;20225;-69
2022/11/21 11:17:31;;;;;;;1.40;0.88;;;17.30;73.40;;;;;;5029642;28;20313;-69
2022/11/21 11:20:26;;;;;;;3.25;0.80;;;17.30;73.10;;;;;;5029372;28;20183;-69
2022/11/21 11:22:52;;;;;;;2.13;0.90;;;17.40;73.30;;;;;;5029254;28;20222;-69
2022/11/21 11:25:17;;;;;;;1.38;0.68;;;17.40;74.10;;;;;;5029045;28;20187;-69
2022/11/21 11:27:43;;;;;;;1.20;0.68;;;17.40;73.40;;;;;;5029395;28;20191;-69
2022/11/21 11:30:15;;;;;;;0.95;0.80;;;17.30;73.20;;;;;;5029542;28;20294;-69
2022/11/21 11:32:41;;;;;;;1.48;0.70;;;17.30;73.30;;;;;;5029258;28;20723;-69
2022/11/21 11:35:22;;;;;;;0.95;0.70;;;17.30;73.20;;;;;;5021173;28;20299;-69
2022/11/21 11:38:12;;;;;;;1.52;0.90;;;17.40;73.30;;;;;;5022691;28;20183;-69
2022/11/21 11:40:43;;;;;;;1.23;0.80;;;17.30;73.10;;;;;;5030670;28;20276;-69
2022/11/21 11:47:31;;;;;;;1.30;0.70;;;17.30;73.00;;;;;;5030470;28;20254;-69
2022/11/21 11:50:10;;;;;;;1.20;0.73;;;17.40;73.20;;;;;;5031826;28;20183;-69
2022/11/21 11:53:06;;;;;;;1.05;0.75;;;17.40;73.10;;;;;;5029633;28;20298;-69
2022/11/21 11:55:53;;;;;;;1.33;0.70;;;17.30;73.00;;;;;;5010827;28;20234;-69
2022/11/21 11:59:01;;;;;;;0.80;0.80;;;17.40;73.20;;;;;;5015422;28;20192;-69
2022/11/21 12:01:41;;;;;;;0.95;0.60;;;17.40;73.20;;;;;;5030174;28;20617;-69
2022/11/21 12:04:19;;;;;;;1.42;0.82;;;17.40;73.10;;;;;;5031541;28;20187;-69
2022/11/21 12:07:07;;;;;;;1.80;0.88;;;17.40;73.10;;;;;;5030506;28;20573;-69
2022/11/21 12:09:49;;;;;;;0.63;0.60;;;17.40;73.10;;;;;;5030422;28;20215;-69
2022/11/21 12:12:31;;;;;;;1.45;0.70;;;17.40;73.20;;;;;;5032300;28;20207;-69
2022/11/21 12:18:19;;;;;;;0.73;0.73;;;17.40;73.10;;;;;;5031234;28;20187;-69
2022/11/21 12:21:10;;;;;;;1.10;0.63;;;17.40;73.10;;;;;;5031327;28;20183;-69
2022/11/21 12:23:48;;;;;;;0.90;0.55;;;17.40;73.10;;;;;;5029461;28;20184;-69
2022/11/21 12:26:22;;;;;;;0.82;0.60;;;17.40;73.30;;;;;;5013600;28;20649;-69
2022/11/21 12:29:44;;;;;;;1.40;0.75;;;17.40;73.20;;;;;;5031417;28;20218;-69
2022/11/21 12:32:50;;;;;;;1.73;1.00;;;17.40;73.20;;;;;;5014443;28;20238;-69
2022/11/21 12:35:55;;;;;;;1.15;0.60;;;17.40;73.10;;;;;;5032741;28;20202;-69
2022/11/21 12:38:32;;;;;;;0.93;0.75;;;17.40;73.10;;;;;;5033235;28;20557;-69
2022/11/21 12:44:38;;;;;;;0.93;0.70;;;17.40;73.10;;;;;;5031546;28;20243;-70
2022/11/21 12:47:22;;;;;;;1.02;0.60;;;17.40;73.10;;;;;;5032777;28;20225;-69
2022/11/21 12:56:35;;;;;;;1.13;0.70;;;17.40;72.90;;;;;;5031716;28;20199;-70
2022/11/21 12:59:03;;;;;;;0.70;0.70;;;17.40;73.10;;;;;;5014993;28;20206;-69
2022/11/21 13:01:59;;;;;;;1.55;0.60;;;17.40;72.90;;;;;;5030984;28;20194;-70
2022/11/21 13:04:35;;;;;;;0.50;0.50;;;17.40;73.00;;;;;;5030621;28;20171;-69
2022/11/21 13:07:02;;;;;;;3.05;0.93;;;17.40;73.00;;;;;;5044699;28;20249;-69
2022/11/21 13:09:38;;;;;;;0.80;0.60;;;17.40;72.90;;;;;;5011680;28;20188;-69
2022/11/21 13:12:49;;;;;;;0.68;0.68;;;17.40;72.80;;;;;;5011583;28;20208;-70
2022/11/21 13:15:33;;;;;;;1.13;0.68;;;17.40;72.90;;;;;;5012322;28;20258;-69
2022/11/21 13:18:28;;;;;;;0.90;0.70;;;17.40;73.00;;;;;;5021593;28;20199;-70
2022/11/21 13:20:54;;;;;;;1.42;0.90;;;17.40;73.10;;;;;;5039500;28;20206;-70
2022/11/21 13:23:35;;;;;;;1.48;0.63;;;17.40;72.90;;;;;;5030820;28;20199;-70
2022/11/21 13:26:01;;;;;;;3.17;0.90;;;17.40;72.90;;;;;;5029165;28;20565;-70
2022/11/21 13:28:31;;;;;;;1.00;0.70;;;17.40;72.80;;;;;;5030916;28;20179;-70
2022/11/21 13:31:00;;;;;;;1.65;1.00;;;17.40;72.90;;;;;;5031812;28;20209;-70
2022/11/21 13:33:38;;;;;;;0.80;0.60;;;17.40;73.00;;;;;;5028511;28;20253;-70
2022/11/21 13:36:35;;;;;;;0.70;0.60;;;17.40;72.90;;;;;;5029623;28;20207;-70
2022/11/21 13:39:28;;;;;;;1.92;0.82;;;17.40;72.90;;;;;;5012489;28;20230;-70
2022/11/21 13:44:42;;;;;;;1.77;0.80;;;17.40;72.90;;;;;;5032018;28;20187;-70
2022/11/21 13:47:13;;;;;;;0.93;0.70;;;17.40;73.00;;;;;;5014665;28;20194;-70